createdAt,value
2017-03-31T00:00:15.896Z,1018.74
2017-03-31T00:00:56.721Z,1018.75
2017-03-31T00:01:37.183Z,1018.73
2017-03-31T00:02:17.693Z,1018.71
2017-03-31T00:02:58.165Z,1018.71
2017-03-31T00:03:38.685Z,1018.69
2017-03-31T00:04:19.209Z,1018.71
2017-03-31T00:04:59.711Z,1018.67
2017-03-31T00:05:40.221Z,1018.7
2017-03-31T00:06:20.715Z,1018.69
2017-03-31T00:07:01.236Z,1018.69
2017-03-31T00:07:41.682Z,1018.66
2017-03-31T00:08:22.222Z,1018.64
2017-03-31T00:09:02.723Z,1018.7
2017-03-31T00:09:43.218Z,1018.63
2017-03-31T00:10:23.731Z,1018.67
2017-03-31T00:11:04.392Z,1018.6
2017-03-31T00:11:44.855Z,1018.63
2017-03-31T00:12:25.338Z,1018.58
2017-03-31T00:13:05.821Z,1018.65
2017-03-31T00:13:46.316Z,1018.63
2017-03-31T00:14:26.823Z,1018.57
2017-03-31T00:15:07.289Z,1018.61
2017-03-31T00:15:47.752Z,1018.56
2017-03-31T00:16:28.232Z,1018.57
2017-03-31T00:17:08.753Z,1018.54
2017-03-31T00:17:49.196Z,1018.5
2017-03-31T00:18:29.671Z,1018.52
2017-03-31T00:19:10.179Z,1018.51
2017-03-31T00:19:50.645Z,1018.48
2017-03-31T00:20:31.143Z,1018.46
2017-03-31T00:21:11.623Z,1018.47
2017-03-31T00:21:52.093Z,1018.42
2017-03-31T00:22:32.582Z,1018.46
2017-03-31T00:23:13.054Z,1018.47
2017-03-31T00:23:53.499Z,1018.44
2017-03-31T00:24:33.999Z,1018.45
2017-03-31T00:25:14.464Z,1018.46
2017-03-31T00:25:54.964Z,1018.49
2017-03-31T00:26:35.434Z,1018.45
2017-03-31T00:27:15.912Z,1018.44
2017-03-31T00:27:56.425Z,1018.39
2017-03-31T00:28:36.884Z,1018.43
2017-03-31T00:29:17.409Z,1018.42
2017-03-31T00:29:57.871Z,1018.42
2017-03-31T00:30:38.338Z,1018.39
2017-03-31T00:31:18.829Z,1018.4
2017-03-31T00:31:59.284Z,1018.4
2017-03-31T00:32:39.797Z,1018.39
2017-03-31T00:33:20.305Z,1018.34
2017-03-31T00:34:00.801Z,1018.36
2017-03-31T00:34:41.289Z,1018.35
2017-03-31T00:35:21.805Z,1018.32
2017-03-31T00:36:02.307Z,1018.35
2017-03-31T00:36:42.771Z,1018.33
2017-03-31T00:37:23.266Z,1018.32
2017-03-31T00:38:03.757Z,1018.3
2017-03-31T00:38:44.219Z,1018.29
2017-03-31T00:39:24.690Z,1018.25
2017-03-31T00:40:05.159Z,1018.28
2017-03-31T00:40:45.661Z,1018.3
2017-03-31T00:41:26.143Z,1018.25
2017-03-31T00:42:06.633Z,1018.24
2017-03-31T00:42:47.118Z,1018.27
2017-03-31T00:43:27.627Z,1018.24
2017-03-31T00:44:08.092Z,1018.28
2017-03-31T00:44:48.577Z,1018.24
2017-03-31T00:45:29.041Z,1018.23
2017-03-31T00:46:09.496Z,1018.21
2017-03-31T00:46:50.001Z,1018.2
2017-03-31T00:47:30.451Z,1018.19
2017-03-31T00:48:10.969Z,1018.18
2017-03-31T00:48:51.451Z,1018.15
2017-03-31T00:49:31.932Z,1018.17
2017-03-31T00:50:12.449Z,1018.17
2017-03-31T00:50:52.928Z,1018.17
2017-03-31T00:51:33.414Z,1018.14
2017-03-31T00:52:13.867Z,1018.14
2017-03-31T00:52:54.334Z,1018.1
2017-03-31T00:53:34.820Z,1018.14
2017-03-31T00:54:15.289Z,1018.14
2017-03-31T00:54:55.745Z,1018.13
2017-03-31T00:55:36.228Z,1018.09
2017-03-31T00:56:16.720Z,1018.11
2017-03-31T00:56:57.190Z,1018.1
2017-03-31T00:57:37.703Z,1018.07
2017-03-31T00:58:18.180Z,1018.05
2017-03-31T00:58:58.655Z,1018.06
2017-03-31T00:59:39.140Z,1018.05
2017-03-31T01:00:19.648Z,1018.03
2017-03-31T01:01:00.118Z,1018.04
2017-03-31T01:01:40.582Z,1018.04
2017-03-31T01:02:21.046Z,1018.02
2017-03-31T01:03:01.551Z,1018.05
2017-03-31T01:03:41.998Z,1018.02
2017-03-31T01:04:22.528Z,1017.97
2017-03-31T01:05:03.039Z,1017.98
2017-03-31T01:05:43.492Z,1018
2017-03-31T01:06:23.993Z,1017.95
2017-03-31T01:07:04.478Z,1017.95
2017-03-31T01:07:44.923Z,1017.95
2017-03-31T01:08:25.419Z,1017.91
2017-03-31T01:09:05.925Z,1017.9
2017-03-31T01:09:46.450Z,1017.9
2017-03-31T01:10:26.898Z,1017.92
2017-03-31T01:11:07.396Z,1017.92
2017-03-31T01:11:47.937Z,1017.89
2017-03-31T01:12:28.409Z,1017.83
2017-03-31T01:13:08.921Z,1017.85
2017-03-31T01:13:49.403Z,1017.84
2017-03-31T01:14:29.916Z,1017.8
2017-03-31T01:15:10.368Z,1017.81
2017-03-31T01:15:50.896Z,1017.78
2017-03-31T01:16:31.370Z,1017.8
2017-03-31T01:17:11.887Z,1017.78
2017-03-31T01:17:52.353Z,1017.77
2017-03-31T01:18:32.843Z,1017.79
2017-03-31T01:19:13.390Z,1017.76
2017-03-31T01:19:53.813Z,1017.82
2017-03-31T01:20:34.379Z,1017.73
2017-03-31T01:21:14.833Z,1017.76
2017-03-31T01:21:55.280Z,1017.79
2017-03-31T01:22:35.767Z,1017.76
2017-03-31T01:23:16.240Z,1017.74
2017-03-31T01:23:56.719Z,1017.74
2017-03-31T01:24:37.201Z,1017.74
2017-03-31T01:25:17.673Z,1017.77
2017-03-31T01:25:58.129Z,1017.75
2017-03-31T01:26:38.593Z,1017.74
2017-03-31T01:27:19.076Z,1017.75
2017-03-31T01:27:59.577Z,1017.71
2017-03-31T01:28:40.062Z,1017.7
2017-03-31T01:29:20.515Z,1017.72
2017-03-31T01:30:00.985Z,1017.71
2017-03-31T01:30:41.493Z,1017.7
2017-03-31T01:31:21.968Z,1017.66
2017-03-31T01:32:02.502Z,1017.72
2017-03-31T01:32:42.979Z,1017.69
2017-03-31T01:33:23.476Z,1017.66
2017-03-31T01:34:03.944Z,1017.68
2017-03-31T01:34:44.440Z,1017.65
2017-03-31T01:35:24.895Z,1017.63
2017-03-31T01:36:05.398Z,1017.65
2017-03-31T01:36:45.875Z,1017.62
2017-03-31T01:37:26.327Z,1017.62
2017-03-31T01:38:06.791Z,1017.61
2017-03-31T01:38:47.256Z,1017.6
2017-03-31T01:39:27.720Z,1017.64
2017-03-31T01:40:08.220Z,1017.58
2017-03-31T01:40:48.700Z,1017.59
2017-03-31T01:41:29.174Z,1017.57
2017-03-31T01:42:09.648Z,1017.59
2017-03-31T01:42:50.144Z,1017.59
2017-03-31T01:43:30.635Z,1017.57
2017-03-31T01:44:11.129Z,1017.57
2017-03-31T01:44:51.580Z,1017.58
2017-03-31T01:45:32.114Z,1017.56
2017-03-31T01:46:12.543Z,1017.53
2017-03-31T01:46:53.043Z,1017.54
2017-03-31T01:47:33.516Z,1017.55
2017-03-31T01:48:13.955Z,1017.51
2017-03-31T01:48:54.472Z,1017.5
2017-03-31T01:49:35.012Z,1017.53
2017-03-31T01:50:15.462Z,1017.5
2017-03-31T01:50:55.918Z,1017.52
2017-03-31T01:51:36.429Z,1017.55
2017-03-31T01:52:16.942Z,1017.5
2017-03-31T01:52:57.393Z,1017.5
2017-03-31T01:53:37.928Z,1017.47
2017-03-31T01:54:18.398Z,1017.5
2017-03-31T01:54:58.943Z,1017.48
2017-03-31T01:55:39.411Z,1017.47
2017-03-31T01:56:19.879Z,1017.45
2017-03-31T01:57:00.380Z,1017.44
2017-03-31T01:57:40.853Z,1017.4
2017-03-31T01:58:21.330Z,1017.45
2017-03-31T01:59:01.800Z,1017.4
2017-03-31T01:59:42.328Z,1017.4
2017-03-31T02:00:22.800Z,1017.39
2017-03-31T02:01:03.276Z,1017.33
2017-03-31T02:01:43.778Z,1017.38
2017-03-31T02:02:24.234Z,1017.33
2017-03-31T02:03:04.709Z,1017.34
2017-03-31T02:03:45.167Z,1017.34
2017-03-31T02:04:25.665Z,1017.32
2017-03-31T02:05:06.120Z,1017.33
2017-03-31T02:05:46.607Z,1017.36
2017-03-31T02:06:27.166Z,1017.28
2017-03-31T02:07:07.651Z,1017.33
2017-03-31T02:07:48.139Z,1017.29
2017-03-31T02:08:28.627Z,1017.26
2017-03-31T02:09:09.074Z,1017.29
2017-03-31T02:09:49.552Z,1017.26
2017-03-31T02:10:30.036Z,1017.28
2017-03-31T02:11:10.488Z,1017.28
2017-03-31T02:11:50.943Z,1017.25
2017-03-31T02:12:31.447Z,1017.24
2017-03-31T02:13:11.929Z,1017.25
2017-03-31T02:13:52.416Z,1017.24
2017-03-31T02:15:50.555Z,1017.22
2017-03-31T02:16:31.091Z,1017.23
2017-03-31T02:17:11.565Z,1017.21
2017-03-31T02:17:52.040Z,1017.23
2017-03-31T02:18:32.558Z,1017.21
2017-03-31T02:19:13.024Z,1017.17
2017-03-31T02:19:53.512Z,1017.24
2017-03-31T02:20:34.012Z,1017.19
2017-03-31T02:21:14.475Z,1017.22
2017-03-31T02:21:54.947Z,1017.18
2017-03-31T02:22:35.465Z,1017.19
2017-03-31T02:23:15.924Z,1017.16
2017-03-31T02:23:56.382Z,1017.15
2017-03-31T02:24:36.887Z,1017.19
2017-03-31T02:25:17.314Z,1017.16
2017-03-31T02:25:57.813Z,1017.16
2017-03-31T02:26:38.279Z,1017.15
2017-03-31T02:27:18.741Z,1017.14
2017-03-31T02:27:59.202Z,1017.12
2017-03-31T02:28:39.711Z,1017.14
2017-03-31T02:29:20.193Z,1017.1
2017-03-31T02:30:00.652Z,1017.1
2017-03-31T02:30:41.157Z,1017.12
2017-03-31T02:31:21.622Z,1017.11
2017-03-31T02:32:02.116Z,1017.14
2017-03-31T02:32:42.578Z,1017.05
2017-03-31T02:33:23.060Z,1017.09
2017-03-31T02:34:03.553Z,1017.04
2017-03-31T02:34:44.062Z,1017.06
2017-03-31T02:35:24.704Z,1017.09
2017-03-31T02:36:05.193Z,1017.1
2017-03-31T02:36:45.679Z,1017.05
2017-03-31T02:37:26.192Z,1017
2017-03-31T02:38:06.669Z,1017.02
2017-03-31T02:38:47.126Z,1017.02
2017-03-31T02:39:27.620Z,1017
2017-03-31T02:40:08.094Z,1016.99
2017-03-31T02:40:48.570Z,1016.99
2017-03-31T02:41:29.039Z,1017.01
2017-03-31T02:42:09.519Z,1017
2017-03-31T02:42:50.020Z,1016.99
2017-03-31T02:43:30.515Z,1016.94
2017-03-31T02:44:11.008Z,1016.97
2017-03-31T02:44:51.487Z,1016.96
2017-03-31T02:45:31.941Z,1016.97
2017-03-31T02:46:12.433Z,1016.99
2017-03-31T02:46:52.925Z,1016.94
2017-03-31T02:47:33.372Z,1016.95
2017-03-31T02:48:13.838Z,1016.93
2017-03-31T02:48:54.411Z,1016.93
2017-03-31T02:49:34.940Z,1016.93
2017-03-31T02:50:15.392Z,1016.94
2017-03-31T02:50:55.828Z,1016.89
2017-03-31T02:51:36.304Z,1016.95
2017-03-31T02:52:16.783Z,1016.87
2017-03-31T02:52:57.284Z,1016.89
2017-03-31T02:53:37.781Z,1016.89
2017-03-31T02:54:18.305Z,1016.87
2017-03-31T02:54:58.752Z,1016.9
2017-03-31T02:55:39.252Z,1016.86
2017-03-31T02:56:19.739Z,1016.88
2017-03-31T02:57:00.205Z,1016.83
2017-03-31T02:57:40.716Z,1016.79
2017-03-31T02:58:21.165Z,1016.8
2017-03-31T02:59:01.639Z,1016.84
2017-03-31T02:59:42.111Z,1016.85
2017-03-31T03:00:22.631Z,1016.79
2017-03-31T03:01:03.143Z,1016.82
2017-03-31T03:01:43.601Z,1016.79
2017-03-31T03:02:24.077Z,1016.83
2017-03-31T03:03:04.590Z,1016.74
2017-03-31T03:03:45.052Z,1016.73
2017-03-31T03:04:25.515Z,1016.79
2017-03-31T03:05:05.988Z,1016.78
2017-03-31T03:05:46.485Z,1016.74
2017-03-31T03:06:27.035Z,1016.76
2017-03-31T03:07:07.531Z,1016.69
2017-03-31T03:07:48.032Z,1016.73
2017-03-31T03:08:28.521Z,1016.74
2017-03-31T03:09:08.990Z,1016.69
2017-03-31T03:09:49.506Z,1016.75
2017-03-31T03:10:30.000Z,1016.7
2017-03-31T03:11:10.457Z,1016.7
2017-03-31T03:11:50.953Z,1016.69
2017-03-31T03:12:31.416Z,1016.64
2017-03-31T03:13:11.933Z,1016.68
2017-03-31T03:13:52.407Z,1016.65
2017-03-31T03:14:32.911Z,1016.66
2017-03-31T03:15:13.341Z,1016.66
2017-03-31T03:15:53.883Z,1016.68
2017-03-31T03:16:34.368Z,1016.67
2017-03-31T03:17:14.824Z,1016.68
2017-03-31T03:17:55.341Z,1016.66
2017-03-31T03:18:35.829Z,1016.64
2017-03-31T03:19:16.324Z,1016.65
2017-03-31T03:19:56.855Z,1016.65
2017-03-31T03:20:37.334Z,1016.61
2017-03-31T03:21:17.805Z,1016.62
2017-03-31T03:21:58.320Z,1016.63
2017-03-31T03:22:38.829Z,1016.62
2017-03-31T03:23:19.306Z,1016.61
2017-03-31T03:23:59.763Z,1016.6
2017-03-31T03:24:40.300Z,1016.58
2017-03-31T03:25:20.773Z,1016.56
2017-03-31T03:26:01.245Z,1016.58
2017-03-31T03:26:41.711Z,1016.57
2017-03-31T03:27:22.167Z,1016.58
2017-03-31T03:28:02.626Z,1016.56
2017-03-31T03:28:43.127Z,1016.54
2017-03-31T03:29:23.620Z,1016.54
2017-03-31T03:30:04.077Z,1016.56
2017-03-31T03:30:44.600Z,1016.58
2017-03-31T03:31:25.078Z,1016.58
2017-03-31T03:32:05.530Z,1016.54
2017-03-31T03:32:45.999Z,1016.56
2017-03-31T03:33:26.477Z,1016.52
2017-03-31T03:34:07.021Z,1016.52
2017-03-31T03:34:47.567Z,1016.49
2017-03-31T03:35:28.055Z,1016.54
2017-03-31T03:36:08.501Z,1016.5
2017-03-31T03:36:48.942Z,1016.49
2017-03-31T03:37:29.442Z,1016.44
2017-03-31T03:38:09.930Z,1016.47
2017-03-31T03:38:50.409Z,1016.46
2017-03-31T03:39:30.885Z,1016.5
2017-03-31T03:40:11.362Z,1016.51
2017-03-31T03:40:51.859Z,1016.46
2017-03-31T03:41:32.371Z,1016.46
2017-03-31T03:42:12.852Z,1016.5
2017-03-31T03:42:53.348Z,1016.46
2017-03-31T03:43:33.844Z,1016.45
2017-03-31T03:44:14.316Z,1016.46
2017-03-31T03:44:54.813Z,1016.46
2017-03-31T03:45:35.267Z,1016.43
2017-03-31T03:46:15.757Z,1016.39
2017-03-31T03:46:56.236Z,1016.43
2017-03-31T03:47:36.743Z,1016.41
2017-03-31T03:48:17.194Z,1016.41
2017-03-31T03:48:57.686Z,1016.43
2017-03-31T03:49:38.166Z,1016.38
2017-03-31T03:50:18.630Z,1016.43
2017-03-31T03:50:59.137Z,1016.41
2017-03-31T03:51:39.646Z,1016.41
2017-03-31T03:52:20.108Z,1016.41
2017-03-31T03:53:00.598Z,1016.39
2017-03-31T03:53:41.085Z,1016.39
2017-03-31T03:54:21.572Z,1016.38
2017-03-31T03:55:02.068Z,1016.37
2017-03-31T03:55:42.527Z,1016.36
2017-03-31T03:56:22.976Z,1016.29
2017-03-31T03:57:03.477Z,1016.35
2017-03-31T03:57:43.956Z,1016.36
2017-03-31T03:58:24.444Z,1016.36
2017-03-31T03:59:04.888Z,1016.35
2017-03-31T03:59:45.346Z,1016.33
2017-03-31T04:00:25.867Z,1016.33
2017-03-31T04:01:06.346Z,1016.29
2017-03-31T04:01:46.848Z,1016.34
2017-03-31T04:02:27.330Z,1016.31
2017-03-31T04:03:07.785Z,1016.31
2017-03-31T04:03:48.278Z,1016.31
2017-03-31T04:04:28.798Z,1016.32
2017-03-31T04:05:09.295Z,1016.28
2017-03-31T04:05:49.771Z,1016.32
2017-03-31T04:06:30.246Z,1016.28
2017-03-31T04:07:10.754Z,1016.27
2017-03-31T04:07:51.213Z,1016.28
2017-03-31T04:08:31.713Z,1016.26
2017-03-31T04:09:12.176Z,1016.24
2017-03-31T04:09:52.657Z,1016.27
2017-03-31T04:10:33.112Z,1016.28
2017-03-31T04:11:13.617Z,1016.26
2017-03-31T04:11:54.061Z,1016.26
2017-03-31T04:12:34.549Z,1016.24
2017-03-31T04:13:15.002Z,1016.23
2017-03-31T04:13:55.481Z,1016.21
2017-03-31T04:14:35.996Z,1016.22
2017-03-31T04:15:16.515Z,1016.21
2017-03-31T04:15:56.987Z,1016.22
2017-03-31T04:16:37.422Z,1016.21
2017-03-31T04:17:17.929Z,1016.19
2017-03-31T04:17:58.438Z,1016.15
2017-03-31T04:18:38.891Z,1016.19
2017-03-31T04:19:19.387Z,1016.17
2017-03-31T04:19:59.882Z,1016.13
2017-03-31T04:20:40.427Z,1016.17
2017-03-31T04:21:20.887Z,1016.18
2017-03-31T04:22:01.377Z,1016.17
2017-03-31T04:22:41.877Z,1016.14
2017-03-31T04:23:22.383Z,1016.14
2017-03-31T04:24:02.822Z,1016.15
2017-03-31T04:24:43.359Z,1016.17
2017-03-31T04:25:23.839Z,1016.12
2017-03-31T04:26:04.336Z,1016.13
2017-03-31T04:26:44.788Z,1016.11
2017-03-31T04:27:25.287Z,1016.13
2017-03-31T04:28:05.795Z,1016.15
2017-03-31T04:28:46.345Z,1016.12
2017-03-31T04:29:26.825Z,1016.17
2017-03-31T04:30:07.287Z,1016.14
2017-03-31T04:30:47.758Z,1016.09
2017-03-31T04:31:28.263Z,1016.06
2017-03-31T04:32:08.705Z,1016.12
2017-03-31T04:32:49.199Z,1016.13
2017-03-31T04:33:29.677Z,1016.12
2017-03-31T04:34:10.160Z,1016.12
2017-03-31T04:34:50.648Z,1016.08
2017-03-31T04:35:31.132Z,1016.12
2017-03-31T04:36:11.591Z,1016.05
2017-03-31T04:36:52.097Z,1016.11
2017-03-31T04:37:32.552Z,1016.07
2017-03-31T04:38:13.025Z,1016.12
2017-03-31T04:38:53.513Z,1016.08
2017-03-31T04:39:33.989Z,1016.1
2017-03-31T04:40:14.462Z,1016.12
2017-03-31T04:40:54.920Z,1016.08
2017-03-31T04:41:35.387Z,1016.11
2017-03-31T04:42:15.845Z,1016.07
2017-03-31T04:42:56.334Z,1016.08
2017-03-31T04:43:36.834Z,1016.07
2017-03-31T04:44:17.262Z,1016.07
2017-03-31T04:44:57.779Z,1016.08
2017-03-31T04:45:38.261Z,1016.06
2017-03-31T04:46:18.764Z,1016.09
2017-03-31T04:46:59.229Z,1016.06
2017-03-31T04:47:39.738Z,1016.05
2017-03-31T04:48:20.225Z,1016.06
2017-03-31T04:49:00.723Z,1016.07
2017-03-31T04:49:41.224Z,1016.08
2017-03-31T04:50:21.715Z,1016.08
2017-03-31T04:51:02.208Z,1016.05
2017-03-31T04:51:42.721Z,1016.02
2017-03-31T04:52:23.232Z,1016.05
2017-03-31T04:53:03.685Z,1016.05
2017-03-31T04:53:44.148Z,1016.01
2017-03-31T04:54:24.606Z,1016.01
2017-03-31T04:55:05.103Z,1016.01
2017-03-31T04:55:45.593Z,1016.01
2017-03-31T04:56:26.060Z,1016.02
2017-03-31T04:57:06.494Z,1016.01
2017-03-31T04:57:46.977Z,1016
2017-03-31T04:58:27.461Z,1015.98
2017-03-31T04:59:07.951Z,1015.98
2017-03-31T04:59:48.439Z,1015.98
2017-03-31T05:00:28.955Z,1015.97
2017-03-31T05:01:09.455Z,1015.99
2017-03-31T05:01:50.006Z,1015.98
2017-03-31T05:02:30.497Z,1015.9
2017-03-31T05:03:10.989Z,1015.91
2017-03-31T05:03:51.465Z,1015.92
2017-03-31T05:04:31.961Z,1015.93
2017-03-31T05:05:12.423Z,1015.92
2017-03-31T05:05:52.874Z,1015.88
2017-03-31T05:06:33.384Z,1015.87
2017-03-31T05:07:13.856Z,1015.92
2017-03-31T05:07:54.357Z,1015.9
2017-03-31T05:08:34.821Z,1015.89
2017-03-31T05:09:15.309Z,1015.88
2017-03-31T05:09:55.780Z,1015.87
2017-03-31T05:10:36.253Z,1015.9
2017-03-31T05:11:16.729Z,1015.89
2017-03-31T05:11:57.225Z,1015.86
2017-03-31T05:12:37.735Z,1015.89
2017-03-31T05:13:18.180Z,1015.85
2017-03-31T05:13:58.672Z,1015.9
2017-03-31T05:14:39.179Z,1015.84
2017-03-31T05:15:19.682Z,1015.86
2017-03-31T05:16:00.163Z,1015.84
2017-03-31T05:16:40.636Z,1015.85
2017-03-31T05:17:21.136Z,1015.84
2017-03-31T05:18:01.637Z,1015.83
2017-03-31T05:18:42.186Z,1015.79
2017-03-31T05:19:22.659Z,1015.84
2017-03-31T05:20:03.124Z,1015.83
2017-03-31T05:20:43.619Z,1015.8
2017-03-31T05:21:24.090Z,1015.83
2017-03-31T05:22:04.571Z,1015.81
2017-03-31T05:22:45.079Z,1015.81
2017-03-31T05:23:32.327Z,1015.85
2017-03-31T05:24:12.826Z,1015.83
2017-03-31T05:24:53.299Z,1015.84
2017-03-31T05:25:33.770Z,1015.81
2017-03-31T05:26:14.277Z,1015.8
2017-03-31T05:26:54.781Z,1015.81
2017-03-31T05:27:35.242Z,1015.79
2017-03-31T05:28:15.724Z,1015.84
2017-03-31T05:28:56.220Z,1015.81
2017-03-31T05:29:36.690Z,1015.79
2017-03-31T05:30:17.180Z,1015.81
2017-03-31T05:30:57.662Z,1015.81
2017-03-31T05:31:38.133Z,1015.79
2017-03-31T05:32:18.617Z,1015.81
2017-03-31T05:32:59.101Z,1015.82
2017-03-31T05:33:39.577Z,1015.79
2017-03-31T05:34:20.064Z,1015.82
2017-03-31T05:35:00.528Z,1015.83
2017-03-31T05:35:41.020Z,1015.83
2017-03-31T05:36:21.502Z,1015.77
2017-03-31T05:37:01.961Z,1015.8
2017-03-31T05:37:42.429Z,1015.82
2017-03-31T05:38:22.926Z,1015.76
2017-03-31T05:39:03.444Z,1015.82
2017-03-31T05:39:43.931Z,1015.81
2017-03-31T05:40:24.502Z,1015.8
2017-03-31T05:41:05.139Z,1015.8
2017-03-31T05:41:45.694Z,1015.83
2017-03-31T05:42:26.337Z,1015.84
2017-03-31T05:43:06.883Z,1015.81
2017-03-31T05:43:47.453Z,1015.77
2017-03-31T05:44:27.919Z,1015.81
2017-03-31T05:45:08.410Z,1015.75
2017-03-31T05:45:48.888Z,1015.82
2017-03-31T05:46:29.412Z,1015.78
2017-03-31T05:47:09.942Z,1015.79
2017-03-31T05:47:50.522Z,1015.81
2017-03-31T05:48:31.042Z,1015.73
2017-03-31T05:49:11.499Z,1015.77
2017-03-31T05:49:52.027Z,1015.83
2017-03-31T05:50:32.556Z,1015.81
2017-03-31T05:51:13.077Z,1015.81
2017-03-31T05:51:53.609Z,1015.76
2017-03-31T05:52:34.773Z,1015.77
2017-03-31T05:53:15.280Z,1015.81
2017-03-31T05:53:56.791Z,1015.77
2017-03-31T05:54:40.140Z,1015.79
2017-03-31T05:55:23.122Z,1015.8
2017-03-31T05:56:06.273Z,1015.78
2017-03-31T05:56:46.881Z,1015.81
2017-03-31T05:57:29.046Z,1015.83
2017-03-31T05:58:09.538Z,1015.85
2017-03-31T05:58:50.785Z,1015.8
2017-03-31T05:59:33.673Z,1015.84
2017-03-31T06:00:14.240Z,1015.86
2017-03-31T06:00:54.805Z,1015.85
2017-03-31T06:01:35.365Z,1015.85
2017-03-31T06:02:16.898Z,1015.83
2017-03-31T06:03:00.149Z,1015.83
2017-03-31T06:05:34.247Z,1015.8
2017-03-31T06:06:14.704Z,1015.81
2017-03-31T06:06:55.272Z,1015.86
2017-03-31T06:07:35.656Z,1015.8
2017-03-31T06:08:16.117Z,1015.8
2017-03-31T06:08:57.882Z,1015.77
2017-03-31T06:09:38.372Z,1015.77
2017-03-31T06:10:18.846Z,1015.78
2017-03-31T06:10:59.339Z,1015.75
2017-03-31T06:11:39.827Z,1015.74
2017-03-31T06:12:21.995Z,1015.74
2017-03-31T06:13:02.512Z,1015.72
2017-03-31T06:13:42.953Z,1015.74
2017-03-31T06:14:23.462Z,1015.74
2017-03-31T06:15:06.394Z,1015.73
2017-03-31T06:15:46.933Z,1015.69
2017-03-31T06:16:30.563Z,1015.67
2017-03-31T06:17:10.822Z,1015.65
2017-03-31T06:17:52.085Z,1015.71
2017-03-31T06:18:32.574Z,1015.66
2017-03-31T06:19:13.070Z,1015.63
2017-03-31T06:19:53.548Z,1015.65
2017-03-31T06:20:34.039Z,1015.66
2017-03-31T06:21:14.623Z,1015.66
2017-03-31T06:21:55.076Z,1015.64
2017-03-31T06:22:35.640Z,1015.62
2017-03-31T06:23:16.081Z,1015.59
2017-03-31T06:23:56.535Z,1015.57
2017-03-31T06:24:37.027Z,1015.6
2017-03-31T06:25:17.581Z,1015.56
2017-03-31T06:25:58.034Z,1015.6
2017-03-31T06:26:38.569Z,1015.53
2017-03-31T06:27:19.043Z,1015.54
2017-03-31T06:28:08.824Z,1015.58
2017-03-31T06:29:00.801Z,1015.54
2017-03-31T06:29:48.962Z,1015.52
2017-03-31T06:30:42.515Z,1015.55
2017-03-31T06:31:26.040Z,1015.53
2017-03-31T06:32:08.775Z,1015.53
2017-03-31T06:32:48.926Z,1015.51
2017-03-31T06:33:29.960Z,1015.49
2017-03-31T06:34:15.262Z,1015.51
2017-03-31T06:34:56.259Z,1015.49
2017-03-31T06:35:38.425Z,1015.5
2017-03-31T06:36:19.806Z,1015.53
2017-03-31T06:37:01.127Z,1015.5
2017-03-31T06:37:44.442Z,1015.48
2017-03-31T06:38:28.782Z,1015.44
2017-03-31T06:39:11.184Z,1015.47
2017-03-31T06:39:52.306Z,1015.47
2017-03-31T06:40:38.735Z,1015.49
2017-03-31T06:41:19.621Z,1015.44
2017-03-31T06:42:00.126Z,1015.47
2017-03-31T06:42:40.629Z,1015.43
2017-03-31T06:43:22.014Z,1015.44
2017-03-31T06:44:02.480Z,1015.43
2017-03-31T06:44:43.080Z,1015.48
2017-03-31T06:45:23.515Z,1015.46
2017-03-31T06:46:04.021Z,1015.46
2017-03-31T06:46:44.696Z,1015.44
2017-03-31T06:47:25.198Z,1015.42
2017-03-31T06:48:05.663Z,1015.42
2017-03-31T06:48:46.133Z,1015.42
2017-03-31T06:49:26.586Z,1015.43
2017-03-31T06:50:07.080Z,1015.45
2017-03-31T06:50:47.589Z,1015.43
2017-03-31T06:51:28.136Z,1015.4
2017-03-31T06:52:08.624Z,1015.38
2017-03-31T06:52:49.166Z,1015.36
2017-03-31T06:53:29.636Z,1015.39
2017-03-31T06:54:10.504Z,1015.39
2017-03-31T06:54:51.021Z,1015.41
2017-03-31T06:55:31.445Z,1015.37
2017-03-31T06:56:11.933Z,1015.39
2017-03-31T06:56:52.670Z,1015.39
2017-03-31T06:57:33.465Z,1015.35
2017-03-31T06:58:14.692Z,1015.37
2017-03-31T06:58:55.382Z,1015.38
2017-03-31T06:59:35.912Z,1015.36
2017-03-31T07:00:16.431Z,1015.38
2017-03-31T07:00:56.949Z,1015.39
2017-03-31T07:01:37.412Z,1015.38
2017-03-31T07:02:17.959Z,1015.37
2017-03-31T07:02:58.446Z,1015.38
2017-03-31T07:03:38.955Z,1015.4
2017-03-31T07:04:19.406Z,1015.41
2017-03-31T07:04:59.924Z,1015.39
2017-03-31T07:05:40.361Z,1015.37
2017-03-31T07:06:20.894Z,1015.42
2017-03-31T07:07:01.369Z,1015.4
2017-03-31T07:07:41.808Z,1015.36
2017-03-31T07:08:22.400Z,1015.42
2017-03-31T07:09:02.942Z,1015.36
2017-03-31T07:09:43.413Z,1015.38
2017-03-31T07:10:24.771Z,1015.42
2017-03-31T07:11:05.307Z,1015.4
2017-03-31T07:11:45.730Z,1015.39
2017-03-31T07:12:26.261Z,1015.43
2017-03-31T07:13:08.199Z,1015.38
2017-03-31T07:13:48.705Z,1015.37
2017-03-31T07:14:29.185Z,1015.37
2017-03-31T07:15:09.662Z,1015.41
2017-03-31T07:15:50.152Z,1015.34
2017-03-31T07:16:30.622Z,1015.38
2017-03-31T07:17:11.261Z,1015.35
2017-03-31T07:17:51.706Z,1015.38
2017-03-31T07:18:32.200Z,1015.37
2017-03-31T07:19:12.681Z,1015.32
2017-03-31T07:19:53.150Z,1015.33
2017-03-31T07:20:33.696Z,1015.35
2017-03-31T07:21:14.172Z,1015.32
2017-03-31T07:21:54.638Z,1015.33
2017-03-31T07:22:35.620Z,1015.3
2017-03-31T07:23:16.065Z,1015.28
2017-03-31T07:23:56.593Z,1015.29
2017-03-31T07:24:37.025Z,1015.3
2017-03-31T07:25:17.578Z,1015.29
2017-03-31T07:25:58.086Z,1015.24
2017-03-31T07:26:38.560Z,1015.26
2017-03-31T07:27:22.244Z,1015.23
2017-03-31T07:28:03.644Z,1015.21
2017-03-31T07:28:44.109Z,1015.24
2017-03-31T07:29:24.564Z,1015.17
2017-03-31T07:30:05.079Z,1015.17
2017-03-31T07:30:45.545Z,1015.15
2017-03-31T07:31:26.034Z,1015.2
2017-03-31T07:32:06.561Z,1015.18
2017-03-31T07:32:47.036Z,1015.1
2017-03-31T07:33:27.528Z,1015.15
2017-03-31T07:34:08.027Z,1015.1
2017-03-31T07:34:49.006Z,1015.07
2017-03-31T07:35:29.561Z,1015.06
2017-03-31T07:37:29.746Z,1015.03
2017-03-31T07:38:16.659Z,1015.05
2017-03-31T07:39:04.408Z,1015.02
2017-03-31T07:39:52.910Z,1015.05
2017-03-31T07:40:42.344Z,1015.08
2017-03-31T07:41:30.726Z,1015.06
2017-03-31T07:42:13.646Z,1015.05
2017-03-31T07:42:54.160Z,1015.07
2017-03-31T07:43:39.702Z,1015.02
2017-03-31T07:44:22.845Z,1015.07
2017-03-31T07:45:03.477Z,1015.06
2017-03-31T07:45:44.821Z,1015.01
2017-03-31T07:46:25.291Z,1015.03
2017-03-31T07:47:05.763Z,1015.02
2017-03-31T07:47:46.260Z,1015.01
2017-03-31T07:48:26.733Z,1015.05
2017-03-31T07:49:07.165Z,1015.02
2017-03-31T07:49:47.678Z,1015.04
2017-03-31T07:50:28.331Z,1015.04
2017-03-31T07:51:09.795Z,1015.02
2017-03-31T07:51:50.303Z,1014.99
2017-03-31T07:52:30.789Z,1015.01
2017-03-31T07:53:11.287Z,1015
2017-03-31T07:53:51.740Z,1015.01
2017-03-31T07:54:32.201Z,1014.97
2017-03-31T07:55:12.717Z,1015
2017-03-31T07:55:53.175Z,1015
2017-03-31T07:56:33.690Z,1015.01
2017-03-31T07:57:14.194Z,1014.97
2017-03-31T07:57:54.688Z,1014.97
2017-03-31T07:58:35.186Z,1014.98
2017-03-31T07:59:15.710Z,1014.98
2017-03-31T07:59:56.135Z,1015.02
2017-03-31T08:00:36.651Z,1015
2017-03-31T08:01:17.193Z,1015.02
2017-03-31T08:01:57.714Z,1014.99
2017-03-31T08:02:38.180Z,1015.01
2017-03-31T08:03:18.637Z,1014.97
2017-03-31T08:03:59.094Z,1014.95
2017-03-31T08:04:39.572Z,1014.98
2017-03-31T08:05:20.099Z,1014.97
2017-03-31T08:06:00.563Z,1015
2017-03-31T08:06:41.045Z,1014.98
2017-03-31T08:07:21.490Z,1014.97
2017-03-31T08:08:01.982Z,1014.98
2017-03-31T08:08:42.533Z,1014.99
2017-03-31T08:09:23.003Z,1014.99
2017-03-31T08:10:03.492Z,1015.02
2017-03-31T08:10:43.972Z,1015.04
2017-03-31T08:11:24.498Z,1014.99
2017-03-31T08:12:04.978Z,1014.99
2017-03-31T08:12:45.449Z,1014.99
2017-03-31T08:13:25.931Z,1014.96
2017-03-31T08:14:06.417Z,1014.96
2017-03-31T08:14:46.919Z,1014.97
2017-03-31T08:15:27.393Z,1014.93
2017-03-31T08:16:07.915Z,1014.98
2017-03-31T08:16:48.450Z,1014.95
2017-03-31T08:17:28.889Z,1014.95
2017-03-31T08:18:09.459Z,1014.95
2017-03-31T08:18:49.961Z,1014.92